Time;durP1;ratioP1;P1;durP2;ratioP2;P2;SDS_P1;SDS_P2;PMS_P1;PMS_P2;Temp;Humidity;BMP_temperature;BMP_pressure;BME280_temperature;BME280_humidity;BME280_pressure;Samples;Min_cycle;Max_cycle;Signal;HPM_P1;HPM_P2
2022/01/01 00:02:19;;;;;;;236.00;141.48;;;;;;;;;;6242998;28;20045;-64
2022/01/01 00:05:20;;;;;;;213.88;128.82;;;;;;;;;;6243222;28;20140;-65
2022/01/01 00:08:22;;;;;;;211.88;128.68;;;;;;;;;;6246081;28;20160;-64
2022/01/01 00:11:23;;;;;;;220.27;127.45;;;;;;;;;;6245380;28;20191;-64
2022/01/01 00:14:26;;;;;;;215.32;125.88;;;;;;;;;;6247147;28;20159;-64
2022/01/01 00:17:28;;;;;;;213.75;130.00;;;;;;;;;;6242081;28;20073;-64
2022/01/01 00:20:29;;;;;;;214.30;126.40;;;;;;;;;;6246157;28;20444;-64
2022/01/01 00:23:31;;;;;;;212.88;126.68;;;;;;;;;;6239603;28;20547;-64
2022/01/01 00:26:32;;;;;;;219.98;127.60;;;;;;;;;;6242215;28;20049;-64
2022/01/01 00:29:35;;;;;;;232.85;131.93;;;;;;;;;;6241691;28;20064;-64
2022/01/01 00:32:38;;;;;;;227.23;131.57;;;;;;;;;;6243987;28;20061;-64
2022/01/01 00:35:40;;;;;;;225.63;130.93;;;;;;;;;;6242659;28;20523;-64
2022/01/01 00:38:42;;;;;;;218.45;125.68;;;;;;;;;;6239012;28;20579;-64
2022/01/01 00:41:43;;;;;;;206.75;117.72;;;;;;;;;;6243515;28;20136;-64
2022/01/01 00:44:46;;;;;;;197.60;114.65;;;;;;;;;;6245529;28;20268;-64
2022/01/01 00:47:48;;;;;;;182.30;109.43;;;;;;;;;;6245709;28;20080;-65
2022/01/01 00:50:49;;;;;;;180.15;107.10;;;;;;;;;;6245946;28;20077;-64
2022/01/01 00:53:51;;;;;;;175.35;101.20;;;;;;;;;;6241904;28;20184;-64
2022/01/01 00:56:53;;;;;;;170.50;98.15;;;;;;;;;;6246220;28;20064;-64
2022/01/01 00:59:56;;;;;;;165.57;96.68;;;;;;;;;;6246263;28;20140;-65
2022/01/01 01:02:57;;;;;;;178.75;103.90;;;;;;;;;;6244531;28;20131;-64
2022/01/01 01:05:59;;;;;;;161.45;100.32;;;;;;;;;;6246270;28;20056;-65
2022/01/01 01:09:01;;;;;;;174.20;100.38;;;;;;;;;;6245651;28;20058;-64
2022/01/01 01:12:03;;;;;;;185.23;107.93;;;;;;;;;;6245335;28;20094;-64
2022/01/01 01:15:09;;;;;;;186.35;109.00;;;;;;;;;;6241792;28;20108;-64
2022/01/01 01:18:12;;;;;;;175.15;104.45;;;;;;;;;;6245692;28;20046;-64
2022/01/01 01:21:13;;;;;;;183.93;109.68;;;;;;;;;;6245100;28;20390;-65
2022/01/01 01:24:15;;;;;;;178.40;105.45;;;;;;;;;;6237417;28;20533;-64
2022/01/01 01:27:17;;;;;;;177.85;105.78;;;;;;;;;;6244307;28;20095;-64
2022/01/01 01:30:22;;;;;;;171.05;102.50;;;;;;;;;;6243276;28;20081;-65
2022/01/01 01:33:23;;;;;;;185.48;106.55;;;;;;;;;;6243020;28;20560;-65
2022/01/01 01:36:25;;;;;;;168.43;101.55;;;;;;;;;;6244392;28;20184;-65
2022/01/01 01:39:26;;;;;;;176.50;104.18;;;;;;;;;;6242522;28;20060;-64
2022/01/01 01:42:29;;;;;;;177.13;104.82;;;;;;;;;;6245683;28;20119;-64
2022/01/01 01:45:32;;;;;;;180.13;105.03;;;;;;;;;;6241732;28;20065;-65
2022/01/01 01:48:37;;;;;;;181.65;102.63;;;;;;;;;;6244250;28;20049;-66
2022/01/01 01:51:39;;;;;;;185.52;108.57;;;;;;;;;;6245032;28;20132;-64
2022/01/01 01:54:41;;;;;;;189.13;106.60;;;;;;;;;;6244262;28;20101;-64
2022/01/01 01:57:43;;;;;;;191.32;105.32;;;;;;;;;;6245135;28;20053;-64
2022/01/01 02:04:07;;;;;;;174.48;102.07;;;;;;;;;;6240158;28;20053;-64
2022/01/01 02:07:09;;;;;;;172.30;101.18;;;;;;;;;;6243701;28;20100;-64
2022/01/01 02:10:12;;;;;;;173.20;101.57;;;;;;;;;;6244938;28;20184;-65
2022/01/01 02:13:20;;;;;;;168.93;97.22;;;;;;;;;;6244062;28;20498;-65
2022/01/01 02:16:37;;;;;;;162.10;94.38;;;;;;;;;;6241546;28;20057;-64
2022/01/01 02:19:51;;;;;;;163.93;96.18;;;;;;;;;;6241806;28;20045;-64
2022/01/01 02:22:58;;;;;;;159.93;95.18;;;;;;;;;;6241480;28;20415;-64
2022/01/01 02:26:00;;;;;;;168.43;98.90;;;;;;;;;;6245913;28;20099;-64
2022/01/01 02:29:03;;;;;;;169.77;98.07;;;;;;;;;;6246597;28;20168;-64
2022/01/01 02:32:09;;;;;;;166.48;98.55;;;;;;;;;;6243002;28;20045;-64
2022/01/01 02:35:12;;;;;;;160.10;94.78;;;;;;;;;;6245336;28;20127;-64
2022/01/01 02:38:15;;;;;;;172.93;95.90;;;;;;;;;;6245141;28;20073;-64
2022/01/01 02:41:17;;;;;;;171.65;98.40;;;;;;;;;;6244697;28;20041;-64
2022/01/01 02:44:21;;;;;;;163.63;96.50;;;;;;;;;;6246416;28;20552;-64
2022/01/01 02:47:23;;;;;;;;;;;;;;;;;;6246583;28;20054;-64
2022/01/01 02:50:24;;;;;;;164.18;93.97;;;;;;;;;;6242726;28;19984;-64
2022/01/01 02:53:27;;;;;;;171.50;97.28;;;;;;;;;;6244114;28;20045;-64
2022/01/01 02:56:29;;;;;;;168.05;97.97;;;;;;;;;;6238549;28;20068;-64
2022/01/01 02:59:30;;;;;;;165.77;94.20;;;;;;;;;;6241274;28;20073;-64
2022/01/01 03:02:32;;;;;;;175.25;98.30;;;;;;;;;;6243118;28;20111;-64
2022/01/01 03:05:35;;;;;;;165.45;96.78;;;;;;;;;;6245083;28;20191;-64
2022/01/01 03:08:38;;;;;;;167.95;96.32;;;;;;;;;;6239207;28;20065;-65
2022/01/01 03:11:40;;;;;;;152.98;89.28;;;;;;;;;;6240499;28;20140;-64
2022/01/01 03:14:42;;;;;;;162.63;91.90;;;;;;;;;;6242530;28;20057;-65
2022/01/01 03:17:43;;;;;;;166.60;92.80;;;;;;;;;;6241404;28;20045;-64
2022/01/01 03:20:45;;;;;;;165.30;96.90;;;;;;;;;;6241474;28;20188;-64
2022/01/01 03:23:48;;;;;;;175.25;97.25;;;;;;;;;;6240263;28;20041;-64
2022/01/01 03:26:50;;;;;;;159.52;95.70;;;;;;;;;;6241582;28;20054;-64
2022/01/01 03:29:51;;;;;;;170.00;94.65;;;;;;;;;;6242069;28;20056;-64
2022/01/01 03:32:53;;;;;;;163.98;96.78;;;;;;;;;;6244194;28;20143;-64
2022/01/01 03:35:55;;;;;;;174.85;100.05;;;;;;;;;;6245681;28;20484;-64
2022/01/01 03:38:59;;;;;;;174.77;101.78;;;;;;;;;;6240725;28;20104;-65
2022/01/01 03:42:01;;;;;;;;;;;;;;;;;;6243293;28;20517;-64
2022/01/01 03:45:02;;;;;;;163.95;96.40;;;;;;;;;;6241086;28;19968;-65
2022/01/01 03:48:05;;;;;;;166.10;97.65;;;;;;;;;;6241986;28;20173;-64
2022/01/01 03:51:06;;;;;;;161.27;96.13;;;;;;;;;;6240600;28;20493;-64
2022/01/01 03:54:11;;;;;;;161.18;94.72;;;;;;;;;;6243028;28;20080;-64
2022/01/01 03:57:12;;;;;;;164.80;96.80;;;;;;;;;;6244096;28;20424;-64
2022/01/01 04:00:15;;;;;;;161.63;93.47;;;;;;;;;;6243498;28;20045;-65
2022/01/01 04:03:17;;;;;;;149.30;90.38;;;;;;;;;;6244502;28;20073;-64
2022/01/01 04:06:19;;;;;;;163.40;91.90;;;;;;;;;;6245475;28;20056;-65
2022/01/01 04:09:22;;;;;;;149.68;86.60;;;;;;;;;;6242951;28;20573;-64
2022/01/01 04:12:23;;;;;;;132.27;81.68;;;;;;;;;;6241420;28;20529;-65
2022/01/01 04:15:25;;;;;;;131.90;77.25;;;;;;;;;;6244395;28;20172;-64
2022/01/01 04:18:37;;;;;;;124.03;74.50;;;;;;;;;;6244303;28;20417;-65
2022/01/01 04:21:39;;;;;;;118.88;69.20;;;;;;;;;;6244915;28;20498;-64
2022/01/01 04:24:42;;;;;;;110.75;67.45;;;;;;;;;;6242404;28;20457;-64
2022/01/01 04:27:43;;;;;;;110.55;67.35;;;;;;;;;;6244388;28;20105;-65
2022/01/01 04:30:45;;;;;;;113.28;66.22;;;;;;;;;;6245561;28;20128;-65
2022/01/01 04:33:46;;;;;;;114.25;65.82;;;;;;;;;;6249449;28;20493;-64
2022/01/01 04:36:53;;;;;;;110.53;66.28;;;;;;;;;;6248636;28;20508;-64
2022/01/01 04:39:59;;;;;;;104.43;64.20;;;;;;;;;;6244626;28;20522;-65
2022/01/01 04:43:01;;;;;;;106.97;64.03;;;;;;;;;;6247371;28;20049;-64
2022/01/01 04:46:03;;;;;;;109.75;65.50;;;;;;;;;;6240916;28;20124;-65
2022/01/01 04:49:04;;;;;;;107.43;61.97;;;;;;;;;;6248224;28;20136;-64
2022/01/01 04:52:06;;;;;;;105.25;62.67;;;;;;;;;;6247739;28;20069;-64
2022/01/01 04:55:10;;;;;;;105.13;62.67;;;;;;;;;;6245951;28;20073;-65
2022/01/01 04:58:11;;;;;;;106.00;64.10;;;;;;;;;;6248038;28;20096;-64
2022/01/01 05:01:14;;;;;;;107.40;60.97;;;;;;;;;;6247041;28;20051;-64
2022/01/01 05:04:15;;;;;;;102.20;59.35;;;;;;;;;;6248257;28;20053;-64
2022/01/01 05:07:17;;;;;;;100.38;58.13;;;;;;;;;;6247493;28;20045;-64
2022/01/01 05:10:20;;;;;;;94.70;56.97;;;;;;;;;;6247861;28;20129;-64
2022/01/01 05:13:22;;;;;;;95.10;55.65;;;;;;;;;;6245751;28;20128;-64
2022/01/01 05:16:23;;;;;;;95.88;57.25;;;;;;;;;;6248057;28;20049;-64
2022/01/01 05:19:25;;;;;;;100.85;56.08;;;;;;;;;;6247287;28;20049;-64
2022/01/01 05:22:26;;;;;;;91.78;54.83;;;;;;;;;;6247653;28;20046;-64
2022/01/01 05:25:29;;;;;;;98.13;56.20;;;;;;;;;;6246924;28;20131;-64
2022/01/01 05:28:31;;;;;;;99.57;57.53;;;;;;;;;;6247912;28;20042;-64
2022/01/01 05:31:33;;;;;;;91.32;54.08;;;;;;;;;;6246560;28;20084;-65
2022/01/01 05:34:35;;;;;;;98.63;57.38;;;;;;;;;;6243906;28;20458;-65
2022/01/01 05:37:36;;;;;;;95.90;55.55;;;;;;;;;;6248045;28;20131;-64
2022/01/01 05:40:39;;;;;;;95.13;55.45;;;;;;;;;;6242479;28;20096;-65
2022/01/01 05:43:41;;;;;;;91.13;53.75;;;;;;;;;;6245355;28;20045;-64
2022/01/01 05:46:43;;;;;;;89.13;54.25;;;;;;;;;;6245899;28;20156;-64
2022/01/01 05:49:44;;;;;;;93.28;54.30;;;;;;;;;;6245047;28;20084;-64
2022/01/01 05:52:46;;;;;;;96.15;55.67;;;;;;;;;;6247255;28;20179;-64
2022/01/01 05:55:49;;;;;;;91.30;54.53;;;;;;;;;;6244927;28;20512;-64
2022/01/01 05:58:51;;;;;;;86.47;54.80;;;;;;;;;;6246896;28;20575;-65
2022/01/01 06:01:52;;;;;;;95.50;56.08;;;;;;;;;;6246701;28;20191;-64
2022/01/01 06:04:54;;;;;;;93.40;53.83;;;;;;;;;;6239934;28;20159;-64
2022/01/01 06:07:56;;;;;;;91.55;55.45;;;;;;;;;;6246593;28;20045;-64
2022/01/01 06:11:00;;;;;;;95.60;57.00;;;;;;;;;;6242233;28;20116;-64
2022/01/01 06:14:02;;;;;;;94.45;54.75;;;;;;;;;;6244598;28;20052;-64
2022/01/01 06:17:04;;;;;;;87.43;53.58;;;;;;;;;;6245318;28;20088;-64
2022/01/01 06:20:06;;;;;;;83.97;52.95;;;;;;;;;;6246462;28;20136;-65
2022/01/01 06:23:09;;;;;;;89.15;54.17;;;;;;;;;;6245995;28;20073;-64
2022/01/01 06:26:12;;;;;;;91.07;53.88;;;;;;;;;;6246300;28;20576;-64
2022/01/01 06:29:13;;;;;;;85.72;52.63;;;;;;;;;;6246618;28;20096;-64
2022/01/01 06:32:15;;;;;;;77.13;48.35;;;;;;;;;;6244267;28;21368;-64
2022/01/01 06:35:16;;;;;;;74.72;47.03;;;;;;;;;;6246497;28;20122;-64
2022/01/01 06:38:18;;;;;;;67.35;45.40;;;;;;;;;;6246727;28;20553;-64
2022/01/01 06:41:24;;;;;;;66.88;43.45;;;;;;;;;;6242773;28;20169;-64
2022/01/01 06:44:26;;;;;;;65.53;41.88;;;;;;;;;;6245321;28;20425;-64
2022/01/01 06:47:27;;;;;;;60.83;39.42;;;;;;;;;;6244258;28;20119;-64
2022/01/01 06:50:29;;;;;;;62.65;41.40;;;;;;;;;;6243486;28;20092;-64
2022/01/01 06:53:31;;;;;;;58.13;37.95;;;;;;;;;;6246523;28;20071;-63
2022/01/01 06:56:34;;;;;;;59.85;38.35;;;;;;;;;;6245998;28;20128;-64
2022/01/01 06:59:35;;;;;;;58.40;39.08;;;;;;;;;;6241460;28;20125;-64
2022/01/01 07:02:40;;;;;;;57.30;38.15;;;;;;;;;;6239527;28;20640;-64
2022/01/01 07:05:42;;;;;;;61.67;39.03;;;;;;;;;;6244880;28;20067;-64
2022/01/01 07:08:44;;;;;;;63.53;38.67;;;;;;;;;;6245485;28;20508;-64
2022/01/01 07:11:47;;;;;;;58.33;38.08;;;;;;;;;;6245676;28;20121;-63
2022/01/01 07:14:48;;;;;;;57.53;36.88;;;;;;;;;;6245089;28;20147;-64
2022/01/01 07:17:50;;;;;;;55.92;36.65;;;;;;;;;;6246109;28;20041;-64
2022/01/01 07:20:51;;;;;;;61.92;38.15;;;;;;;;;;6245664;28;20502;-64
2022/01/01 07:23:53;;;;;;;58.13;36.88;;;;;;;;;;6245950;28;20081;-64
2022/01/01 07:26:56;;;;;;;58.85;36.47;;;;;;;;;;6243435;28;20140;-64
2022/01/01 07:29:57;;;;;;;59.08;37.95;;;;;;;;;;6243984;28;20132;-64
2022/01/01 07:32:59;;;;;;;54.88;35.40;;;;;;;;;;6244831;28;20065;-64
2022/01/01 07:36:00;;;;;;;54.95;35.40;;;;;;;;;;6245788;28;20054;-64
2022/01/01 07:39:02;;;;;;;54.90;36.22;;;;;;;;;;6242057;28;20045;-64
2022/01/01 07:42:06;;;;;;;58.10;36.00;;;;;;;;;;6238392;28;20038;-64
2022/01/01 07:45:09;;;;;;;51.65;33.95;;;;;;;;;;6243031;28;20092;-64
2022/01/01 07:48:11;;;;;;;53.60;34.65;;;;;;;;;;6245026;28;20081;-64
2022/01/01 07:51:12;;;;;;;54.45;34.25;;;;;;;;;;6244632;28;20103;-64
2022/01/01 07:54:14;;;;;;;52.00;33.20;;;;;;;;;;6244710;28;20144;-64
2022/01/01 07:57:17;;;;;;;50.38;33.63;;;;;;;;;;6244727;28;20118;-64
2022/01/01 08:00:18;;;;;;;52.17;34.08;;;;;;;;;;6242624;28;20590;-64
2022/01/01 08:03:20;;;;;;;51.65;34.58;;;;;;;;;;6244261;28;20179;-65
2022/01/01 08:06:21;;;;;;;52.50;33.97;;;;;;;;;;6245906;28;20077;-64
2022/01/01 08:09:23;;;;;;;58.88;36.80;;;;;;;;;;6246116;28;20124;-64
2022/01/01 08:12:26;;;;;;;60.33;38.97;;;;;;;;;;6245237;28;20413;-64
2022/01/01 08:15:28;;;;;;;60.05;37.67;;;;;;;;;;6249286;28;20061;-64
2022/01/01 08:18:29;;;;;;;59.60;38.58;;;;;;;;;;6250002;28;20053;-64
2022/01/01 08:21:31;;;;;;;57.95;38.95;;;;;;;;;;6248530;28;20041;-64
2022/01/01 08:24:33;;;;;;;58.42;38.03;;;;;;;;;;6248148;28;20417;-64
2022/01/01 08:27:35;;;;;;;52.17;35.75;;;;;;;;;;6249251;28;20172;-64
2022/01/01 08:30:37;;;;;;;54.47;36.33;;;;;;;;;;6246102;28;20045;-64
2022/01/01 08:33:39;;;;;;;53.17;35.42;;;;;;;;;;6247549;28;20096;-64
2022/01/01 08:36:40;;;;;;;43.20;31.73;;;;;;;;;;6248170;28;20061;-64
2022/01/01 08:39:42;;;;;;;48.65;33.08;;;;;;;;;;6245972;28;20119;-64
2022/01/01 08:42:45;;;;;;;48.30;32.88;;;;;;;;;;6245525;28;20049;-64
2022/01/01 08:45:46;;;;;;;47.65;33.20;;;;;;;;;;6246928;28;20131;-64
2022/01/01 08:48:48;;;;;;;46.80;33.58;;;;;;;;;;6246545;28;20477;-64
2022/01/01 08:51:49;;;;;;;52.38;35.85;;;;;;;;;;6244081;28;20515;-64
2022/01/01 08:54:55;;;;;;;46.67;34.83;;;;;;;;;;6244634;28;20129;-64
2022/01/01 08:57:58;;;;;;;50.22;35.63;;;;;;;;;;6244725;28;20056;-64
2022/01/01 09:00:59;;;;;;;48.88;35.42;;;;;;;;;;6243257;28;20132;-64
2022/01/01 09:04:01;;;;;;;50.70;36.97;;;;;;;;;;6247158;28;20478;-64
2022/01/01 09:07:03;;;;;;;50.33;35.88;;;;;;;;;;6245872;28;20180;-64
2022/01/01 09:10:06;;;;;;;50.03;36.80;;;;;;;;;;6245438;28;20057;-64
2022/01/01 09:13:09;;;;;;;53.38;36.75;;;;;;;;;;6241966;28;20087;-64
2022/01/01 09:16:11;;;;;;;53.65;36.40;;;;;;;;;;6237451;28;20108;-64
2022/01/01 09:19:12;;;;;;;49.75;35.05;;;;;;;;;;6243599;28;20065;-64
2022/01/01 09:22:14;;;;;;;46.42;34.08;;;;;;;;;;6238575;28;20257;-64
2022/01/01 09:25:16;;;;;;;52.85;36.00;;;;;;;;;;6241431;28;20077;-64
2022/01/01 09:28:19;;;;;;;46.33;34.83;;;;;;;;;;6244947;28;20392;-64
2022/01/01 09:31:20;;;;;;;48.50;36.28;;;;;;;;;;6244448;28;20076;-64
2022/01/01 09:34:22;;;;;;;50.92;36.88;;;;;;;;;;6242063;28;20511;-64
2022/01/01 09:37:24;;;;;;;48.63;35.53;;;;;;;;;;6244919;28;20442;-64
2022/01/01 09:40:26;;;;;;;43.58;32.58;;;;;;;;;;6236844;28;20073;-64
2022/01/01 09:43:30;;;;;;;41.85;31.67;;;;;;;;;;6241168;28;20100;-64
2022/01/01 09:46:33;;;;;;;42.08;32.28;;;;;;;;;;6241223;28;20107;-64
2022/01/01 09:49:35;;;;;;;41.47;32.75;;;;;;;;;;6240241;28;20056;-64
2022/01/01 09:52:37;;;;;;;41.67;32.85;;;;;;;;;;6241360;28;20514;-64
2022/01/01 09:55:39;;;;;;;41.88;31.95;;;;;;;;;;6242463;28;20088;-64
2022/01/01 09:58:42;;;;;;;43.38;33.38;;;;;;;;;;6239845;28;20080;-64
2022/01/01 10:01:43;;;;;;;42.35;33.80;;;;;;;;;;6241595;28;20102;-64
2022/01/01 10:04:48;;;;;;;45.25;35.00;;;;;;;;;;6240458;28;20129;-64
2022/01/01 10:07:49;;;;;;;43.95;34.20;;;;;;;;;;6239409;28;20055;-64
2022/01/01 10:10:51;;;;;;;50.75;35.50;;;;;;;;;;6238950;28;20128;-64
2022/01/01 10:13:55;;;;;;;44.80;35.40;;;;;;;;;;6242635;28;20179;-64
2022/01/01 10:16:56;;;;;;;50.15;36.00;;;;;;;;;;6240471;28;20188;-64
2022/01/01 10:19:58;;;;;;;48.65;36.22;;;;;;;;;;6242656;28;20124;-64
2022/01/01 10:23:10;;;;;;;49.85;35.65;;;;;;;;;;6237303;28;20045;-64
2022/01/01 10:29:34;;;;;;;46.78;35.95;;;;;;;;;;6240222;28;20045;-64
2022/01/01 10:32:36;;;;;;;46.30;35.35;;;;;;;;;;6238692;28;20119;-65
2022/01/01 10:35:40;;;;;;;48.38;35.75;;;;;;;;;;6240850;28;20184;-64
2022/01/01 10:38:41;;;;;;;;;;;;;;;;;;6242417;28;20095;-64
2022/01/01 10:41:47;;;;;;;43.63;33.63;;;;;;;;;;6238647;28;19921;-63
2022/01/01 10:44:51;;;;;;;44.33;34.88;;;;;;;;;;6237129;28;20148;-64
2022/01/01 10:48:03;;;;;;;;;;;;;;;;;;6237280;28;20065;-64
2022/01/01 10:51:07;;;;;;;41.55;33.85;;;;;;;;;;6236493;28;19922;-64
2022/01/01 10:54:10;;;;;;;44.70;34.85;;;;;;;;;;6242434;28;20049;-64
2022/01/01 10:57:12;;;;;;;45.33;35.45;;;;;;;;;;6239328;28;20056;-64
2022/01/01 11:00:17;;;;;;;44.75;35.45;;;;;;;;;;6237198;28;20556;-64
2022/01/01 11:03:20;;;;;;;51.22;36.90;;;;;;;;;;6239186;28;20052;-64
2022/01/01 11:06:22;;;;;;;44.83;35.88;;;;;;;;;;6239826;28;20056;-64
2022/01/01 11:09:24;;;;;;;44.45;36.25;;;;;;;;;;6242868;28;20076;-64
2022/01/01 11:12:27;;;;;;;44.97;36.15;;;;;;;;;;6242962;28;20143;-64
2022/01/01 11:15:30;;;;;;;44.60;35.78;;;;;;;;;;6237996;28;20042;-64
2022/01/01 11:18:33;;;;;;;44.63;36.63;;;;;;;;;;6240683;28;20056;-64
2022/01/01 11:21:35;;;;;;;47.10;37.08;;;;;;;;;;6241790;28;20120;-64
2022/01/01 11:24:38;;;;;;;47.38;37.15;;;;;;;;;;6242917;28;20575;-64
2022/01/01 11:27:40;;;;;;;45.25;36.13;;;;;;;;;;6242821;28;20058;-64
2022/01/01 11:30:50;;;;;;;44.97;35.80;;;;;;;;;;6241489;28;20046;-64
2022/01/01 11:33:55;;;;;;;44.08;37.03;;;;;;;;;;6242702;28;20196;-64
2022/01/01 11:36:57;;;;;;;49.30;36.90;;;;;;;;;;6241358;28;20042;-64
2022/01/01 11:40:00;;;;;;;44.92;37.20;;;;;;;;;;6244521;28;20494;-64
2022/01/01 11:43:02;;;;;;;47.58;37.10;;;;;;;;;;6243016;28;20046;-64
2022/01/01 11:46:11;;;;;;;46.05;37.80;;;;;;;;;;6240497;28;20092;-64
2022/01/01 11:49:26;;;;;;;45.97;37.55;;;;;;;;;;6241888;28;20053;-64
2022/01/01 11:52:38;;;;;;;49.33;39.75;;;;;;;;;;6241834;28;20176;-64
2022/01/01 11:56:04;;;;;;;48.28;39.58;;;;;;;;;;6242383;28;20048;-64
2022/01/01 11:59:18;;;;;;;49.38;38.30;;;;;;;;;;6243231;28;20049;-64
2022/01/01 12:02:41;;;;;;;47.95;38.75;;;;;;;;;;6245506;28;20140;-64
2022/01/01 12:05:45;;;;;;;50.40;38.22;;;;;;;;;;6243980;28;20041;-64
2022/01/01 12:08:48;;;;;;;46.80;37.70;;;;;;;;;;6244342;28;20056;-64
2022/01/01 12:11:54;;;;;;;48.40;38.57;;;;;;;;;;6244953;28;20046;-64
2022/01/01 12:14:57;;;;;;;49.00;37.90;;;;;;;;;;6243717;28;20543;-64
2022/01/01 12:18:01;;;;;;;47.08;37.78;;;;;;;;;;6247113;28;20128;-64
2022/01/01 12:21:04;;;;;;;49.53;39.55;;;;;;;;;;6246821;28;20041;-64
2022/01/01 12:24:08;;;;;;;49.35;38.85;;;;;;;;;;6247208;28;20132;-64
2022/01/01 12:27:11;;;;;;;50.75;38.97;;;;;;;;;;6246440;28;20064;-64
2022/01/01 12:30:13;;;;;;;53.30;39.30;;;;;;;;;;6247164;28;20232;-65
2022/01/01 12:33:26;;;;;;;48.40;38.92;;;;;;;;;;6246071;28;20150;-64
2022/01/01 12:36:31;;;;;;;52.92;40.90;;;;;;;;;;6246460;28;20049;-64
2022/01/01 12:40:08;;;;;;;51.58;39.60;;;;;;;;;;6242713;28;20049;-64
2022/01/01 12:43:12;;;;;;;50.78;38.83;;;;;;;;;;6235020;28;20128;-64
2022/01/01 12:46:17;;;;;;;50.28;39.40;;;;;;;;;;6241968;28;20115;-64
2022/01/01 12:49:20;;;;;;;49.65;39.20;;;;;;;;;;6241993;28;20129;-64
2022/01/01 12:52:23;;;;;;;52.90;40.60;;;;;;;;;;6240975;28;20516;-64
2022/01/01 12:55:25;;;;;;;53.00;40.25;;;;;;;;;;6243846;28;20046;-64
2022/01/01 12:58:31;;;;;;;52.72;38.85;;;;;;;;;;6241754;28;20567;-64
2022/01/01 13:01:34;;;;;;;49.55;38.55;;;;;;;;;;6241453;28;20157;-65
2022/01/01 13:04:37;;;;;;;50.22;39.30;;;;;;;;;;6245612;28;20080;-65
2022/01/01 13:07:41;;;;;;;53.00;40.53;;;;;;;;;;6241873;28;20247;-64
2022/01/01 13:10:44;;;;;;;48.70;40.13;;;;;;;;;;6240826;28;20323;-64
2022/01/01 13:13:46;;;;;;;51.00;39.15;;;;;;;;;;6243984;28;20581;-64
2022/01/01 13:16:47;;;;;;;52.45;41.13;;;;;;;;;;6241655;28;20248;-65
2022/01/01 13:19:53;;;;;;;52.70;40.70;;;;;;;;;;6243062;28;20134;-64
2022/01/01 13:23:04;;;;;;;48.95;39.00;;;;;;;;;;6243577;28;20150;-64
2022/01/01 13:26:06;;;;;;;54.35;40.88;;;;;;;;;;6244827;28;20148;-64
2022/01/01 13:29:08;;;;;;;51.13;39.40;;;;;;;;;;6242709;28;20060;-64
2022/01/01 13:32:09;;;;;;;52.28;39.22;;;;;;;;;;6242341;28;20245;-64
2022/01/01 13:35:12;;;;;;;52.20;38.80;;;;;;;;;;6244967;28;20183;-64
2022/01/01 13:38:15;;;;;;;50.53;38.33;;;;;;;;;;6245914;28;20138;-64
2022/01/01 13:41:17;;;;;;;48.97;37.83;;;;;;;;;;6241981;28;20172;-64
2022/01/01 13:44:23;;;;;;;51.13;39.35;;;;;;;;;;6245897;28;20103;-65
2022/01/01 13:47:29;;;;;;;44.83;36.15;;;;;;;;;;6244350;28;20115;-64
2022/01/01 13:50:39;;;;;;;49.53;37.83;;;;;;;;;;6241493;28;20478;-65
2022/01/01 13:53:42;;;;;;;48.50;38.20;;;;;;;;;;6244094;28;20045;-65
2022/01/01 13:56:43;;;;;;;52.83;39.42;;;;;;;;;;6244069;28;20417;-65
2022/01/01 13:59:46;;;;;;;48.20;38.47;;;;;;;;;;6244257;28;20401;-65
2022/01/01 14:02:48;;;;;;;51.23;38.47;;;;;;;;;;6244141;28;20236;-65
2022/01/01 14:05:52;;;;;;;50.45;38.45;;;;;;;;;;6244645;28;20531;-65
2022/01/01 14:08:58;;;;;;;50.72;37.17;;;;;;;;;;6241189;28;20050;-65
2022/01/01 14:12:00;;;;;;;50.15;36.92;;;;;;;;;;6243443;28;20060;-65
2022/01/01 14:15:03;;;;;;;55.28;39.65;;;;;;;;;;6243815;28;20077;-65
2022/01/01 14:18:06;;;;;;;51.00;38.22;;;;;;;;;;6243485;28;20041;-65
2022/01/01 14:21:10;;;;;;;51.13;37.00;;;;;;;;;;6243387;28;20175;-64
2022/01/01 14:24:15;;;;;;;54.45;37.95;;;;;;;;;;6240781;28;20187;-64
2022/01/01 14:27:16;;;;;;;51.15;38.70;;;;;;;;;;6242515;28;20219;-65
2022/01/01 14:30:18;;;;;;;54.42;39.15;;;;;;;;;;6237964;28;20092;-65
2022/01/01 14:33:20;;;;;;;54.17;40.47;;;;;;;;;;6242244;28;20099;-64
2022/01/01 14:36:23;;;;;;;58.00;42.25;;;;;;;;;;6243709;28;20052;-64
2022/01/01 14:39:24;;;;;;;59.60;42.37;;;;;;;;;;6241433;28;20136;-64
2022/01/01 14:42:26;;;;;;;57.10;41.92;;;;;;;;;;6241735;28;20108;-64
2022/01/01 14:45:28;;;;;;;55.55;40.60;;;;;;;;;;6242976;28;20119;-64
2022/01/01 14:48:31;;;;;;;53.35;39.08;;;;;;;;;;6241892;28;20132;-64
2022/01/01 14:51:43;;;;;;;55.83;41.33;;;;;;;;;;6242951;28;20443;-64
2022/01/01 14:54:52;;;;;;;55.00;38.17;;;;;;;;;;6240877;28;20072;-65
2022/01/01 14:57:58;;;;;;;56.53;38.83;;;;;;;;;;6238760;28;20144;-64
2022/01/01 15:01:00;;;;;;;51.92;37.03;;;;;;;;;;6236943;28;20045;-64
2022/01/01 15:04:03;;;;;;;55.88;37.20;;;;;;;;;;6237906;28;20078;-65
2022/01/01 15:07:08;;;;;;;55.47;39.00;;;;;;;;;;6239342;28;20123;-64
2022/01/01 15:10:11;;;;;;;56.33;38.55;;;;;;;;;;6236751;28;20124;-65
2022/01/01 15:13:13;;;;;;;53.83;38.57;;;;;;;;;;6236049;28;20604;-65
2022/01/01 15:16:15;;;;;;;56.83;38.70;;;;;;;;;;6243190;28;20824;-65
2022/01/01 15:19:17;;;;;;;55.47;37.88;;;;;;;;;;6243297;28;20095;-65
2022/01/01 15:22:26;;;;;;;51.75;36.88;;;;;;;;;;6240892;28;20144;-65
2022/01/01 15:25:30;;;;;;;54.22;38.28;;;;;;;;;;6242787;28;20053;-65
2022/01/01 15:28:31;;;;;;;52.03;34.80;;;;;;;;;;6242980;28;20142;-64
2022/01/01 15:31:39;;;;;;;46.28;30.83;;;;;;;;;;6241534;28;20100;-65
2022/01/01 15:34:44;;;;;;;43.63;30.73;;;;;;;;;;6242616;28;20052;-65
2022/01/01 15:37:55;;;;;;;47.28;31.27;;;;;;;;;;6242284;28;20069;-64
2022/01/01 15:41:01;;;;;;;50.75;31.58;;;;;;;;;;6238714;28;20049;-64
2022/01/01 15:44:02;;;;;;;49.92;34.08;;;;;;;;;;6239236;28;20056;-64
2022/01/01 15:47:04;;;;;;;41.05;29.65;;;;;;;;;;6240396;28;20132;-64
2022/01/01 15:50:07;;;;;;;52.30;31.88;;;;;;;;;;6237366;28;20371;-65
2022/01/01 15:53:12;;;;;;;47.30;32.30;;;;;;;;;;6240837;28;20131;-65
2022/01/01 15:56:15;;;;;;;51.30;33.50;;;;;;;;;;6240095;28;20123;-65
2022/01/01 15:59:18;;;;;;;53.33;32.95;;;;;;;;;;6234626;28;20141;-65
2022/01/01 16:02:38;;;;;;;49.63;32.90;;;;;;;;;;6241390;28;20413;-65
2022/01/01 16:05:41;;;;;;;52.92;33.28;;;;;;;;;;6238131;28;20132;-65
2022/01/01 16:08:48;;;;;;;51.07;32.43;;;;;;;;;;6242302;28;20107;-65
2022/01/01 16:11:50;;;;;;;51.80;33.70;;;;;;;;;;6240046;28;20096;-65
2022/01/01 16:14:53;;;;;;;50.17;34.33;;;;;;;;;;6238636;28;20398;-65
2022/01/01 16:17:56;;;;;;;55.37;36.10;;;;;;;;;;6242532;28;20057;-65
2022/01/01 16:20:57;;;;;;;51.08;34.95;;;;;;;;;;6240654;28;20481;-65
2022/01/01 16:24:01;;;;;;;53.10;36.50;;;;;;;;;;6243549;28;20569;-65
2022/01/01 16:27:03;;;;;;;51.50;36.07;;;;;;;;;;6243938;28;20096;-65
2022/01/01 16:30:05;;;;;;;55.97;36.35;;;;;;;;;;6244982;28;20474;-65
2022/01/01 16:33:08;;;;;;;56.83;37.50;;;;;;;;;;6246112;28;20053;-65
2022/01/01 16:36:10;;;;;;;55.55;37.88;;;;;;;;;;6246812;28;20132;-65
2022/01/01 16:39:13;;;;;;;52.97;35.95;;;;;;;;;;6245133;28;20037;-65
2022/01/01 16:42:19;;;;;;;51.78;36.83;;;;;;;;;;6241931;28;20096;-64
2022/01/01 16:45:22;;;;;;;54.95;35.65;;;;;;;;;;6236748;28;20121;-65
2022/01/01 16:48:30;;;;;;;55.35;37.83;;;;;;;;;;6237518;28;20194;-65
2022/01/01 16:51:36;;;;;;;50.53;35.85;;;;;;;;;;6241266;28;20072;-65
2022/01/01 16:54:40;;;;;;;55.03;36.28;;;;;;;;;;6241415;28;20188;-65
2022/01/01 16:57:43;;;;;;;52.97;36.10;;;;;;;;;;6242538;28;20393;-64
2022/01/01 17:00:50;;;;;;;56.70;36.92;;;;;;;;;;6243787;28;20089;-65
2022/01/01 17:03:59;;;;;;;53.00;38.30;;;;;;;;;;6245180;28;20042;-65
2022/01/01 17:07:01;;;;;;;52.55;35.83;;;;;;;;;;6241394;28;20037;-65
2022/01/01 17:10:06;;;;;;;54.90;37.95;;;;;;;;;;6243406;28;20514;-65
2022/01/01 17:13:07;;;;;;;54.08;37.05;;;;;;;;;;6243443;28;20192;-65
2022/01/01 17:16:13;;;;;;;56.80;37.50;;;;;;;;;;6242661;28;20057;-65
2022/01/01 17:19:21;;;;;;;55.55;37.67;;;;;;;;;;6244425;28;20045;-65
2022/01/01 17:22:29;;;;;;;54.58;35.72;;;;;;;;;;6241774;28;20553;-65
2022/01/01 17:25:33;;;;;;;56.80;37.67;;;;;;;;;;6241892;28;20041;-65
2022/01/01 17:28:44;;;;;;;;;;;;;;;;;;6242700;28;20444;-65
2022/01/01 17:31:47;;;;;;;51.33;35.75;;;;;;;;;;6243964;28;19927;-65
2022/01/01 17:35:16;;;;;;;55.88;36.90;;;;;;;;;;6244808;28;20080;-65
2022/01/01 17:41:43;;;;;;;52.03;35.15;;;;;;;;;;6242420;28;20552;-65
2022/01/01 17:44:47;;;;;;;48.22;33.72;;;;;;;;;;6243750;28;20049;-64
2022/01/01 17:47:52;;;;;;;47.70;33.67;;;;;;;;;;6242210;28;20052;-64
2022/01/01 17:51:02;;;;;;;47.25;34.03;;;;;;;;;;6241642;28;20049;-64
2022/01/01 17:54:05;;;;;;;48.05;32.80;;;;;;;;;;6242622;28;20057;-64